createdAt,value
2018-01-12T00:00:03.362Z,0.00
2018-01-12T00:01:03.390Z,0.00
2018-01-12T00:02:03.415Z,0.00
2018-01-12T00:03:03.440Z,0.00
2018-01-12T00:04:03.467Z,0.00
2018-01-12T00:05:03.497Z,0.00
2018-01-12T00:06:03.520Z,0.00
2018-01-12T00:07:03.546Z,0.00
2018-01-12T00:08:03.573Z,0.00
2018-01-12T00:09:03.602Z,0.00
2018-01-12T00:10:03.626Z,0.00
2018-01-12T00:11:03.654Z,0.00
2018-01-12T00:12:03.676Z,0.00
2018-01-12T00:13:03.704Z,0.00
2018-01-12T00:14:03.729Z,0.00
2018-01-12T00:15:03.756Z,0.00
2018-01-12T00:16:03.783Z,0.00
2018-01-12T00:17:03.808Z,0.00
2018-01-12T00:18:03.834Z,0.00
2018-01-12T00:19:03.860Z,0.00
2018-01-12T00:20:03.897Z,0.00
2018-01-12T00:21:03.913Z,0.00
2018-01-12T00:22:03.940Z,0.00
2018-01-12T00:23:03.965Z,0.00
2018-01-12T00:24:03.993Z,0.00
2018-01-12T00:25:04.019Z,0.00
2018-01-12T00:26:04.045Z,0.00
2018-01-12T00:27:04.070Z,0.00
2018-01-12T00:28:04.098Z,0.00
2018-01-12T00:29:04.123Z,0.00
2018-01-12T00:30:04.151Z,0.00
2018-01-12T00:31:04.175Z,0.00
2018-01-12T00:32:04.202Z,0.00
2018-01-12T00:33:04.228Z,0.00
2018-01-12T00:34:04.255Z,0.00
2018-01-12T00:35:04.280Z,0.00
2018-01-12T00:36:04.306Z,0.00
2018-01-12T00:37:04.331Z,0.00
2018-01-12T00:38:04.363Z,0.00
2018-01-12T00:39:04.385Z,0.00
2018-01-12T00:40:04.411Z,0.00
2018-01-12T00:41:04.438Z,0.00
2018-01-12T00:42:04.464Z,0.00
2018-01-12T00:43:04.491Z,0.00
2018-01-12T00:44:04.516Z,0.00
2018-01-12T00:45:04.543Z,0.00
2018-01-12T00:46:04.569Z,0.00
2018-01-12T00:47:04.595Z,0.00
2018-01-12T00:48:04.622Z,0.00
2018-01-12T00:49:04.652Z,0.00
2018-01-12T00:50:04.674Z,0.00
2018-01-12T00:51:04.699Z,0.00
2018-01-12T00:52:04.726Z,0.00
2018-01-12T00:53:04.754Z,0.00
2018-01-12T00:54:04.779Z,0.00
2018-01-12T00:55:04.811Z,0.00
2018-01-12T00:56:04.831Z,0.00
2018-01-12T00:57:04.858Z,0.00
2018-01-12T00:58:04.883Z,0.00
2018-01-12T00:59:04.909Z,0.00
2018-01-12T01:00:04.937Z,0.00
2018-01-12T01:01:04.963Z,0.00
2018-01-12T01:02:04.989Z,0.00
2018-01-12T01:03:05.015Z,0.00
2018-01-12T01:04:05.044Z,0.00
2018-01-12T01:05:05.068Z,0.00
2018-01-12T01:06:05.094Z,0.00
2018-01-12T01:07:05.121Z,0.00
2018-01-12T01:08:05.148Z,0.00
2018-01-12T01:09:05.174Z,0.00
2018-01-12T01:10:05.201Z,0.00
2018-01-12T01:11:05.231Z,0.00
2018-01-12T01:12:05.252Z,0.00
2018-01-12T01:13:05.279Z,0.00
2018-01-12T01:14:05.305Z,0.00
2018-01-12T01:15:05.333Z,0.00
2018-01-12T01:16:05.357Z,0.00
2018-01-12T01:17:05.388Z,0.00
2018-01-12T01:18:05.410Z,0.00
2018-01-12T01:19:05.436Z,0.00
2018-01-12T01:20:05.462Z,0.00
2018-01-12T01:21:05.489Z,0.00
2018-01-12T01:22:05.515Z,0.00
2018-01-12T01:23:05.543Z,0.00
2018-01-12T01:24:05.569Z,0.00
2018-01-12T01:25:05.594Z,0.00
2018-01-12T01:26:05.625Z,0.00
2018-01-12T01:27:05.647Z,0.00
2018-01-12T01:28:05.675Z,0.00
2018-01-12T01:29:05.700Z,0.00
2018-01-12T01:30:05.726Z,0.00
2018-01-12T01:31:05.799Z,0.00
2018-01-12T01:32:05.779Z,0.00
2018-01-12T01:33:05.806Z,0.00
2018-01-12T01:34:05.833Z,0.00
2018-01-12T01:35:05.860Z,0.00
2018-01-12T01:36:05.885Z,0.00
2018-01-12T01:37:05.912Z,0.00
2018-01-12T01:38:05.939Z,0.00
2018-01-12T01:39:05.962Z,0.00
2018-01-12T01:40:05.989Z,0.00
2018-01-12T01:41:06.018Z,0.00
2018-01-12T01:42:06.044Z,0.00
2018-01-12T01:43:06.069Z,0.00
2018-01-12T01:44:06.096Z,0.00
2018-01-12T01:45:06.123Z,0.00
2018-01-12T01:46:06.148Z,0.00
2018-01-12T01:47:06.175Z,0.00
2018-01-12T01:48:06.202Z,0.00
2018-01-12T01:49:06.227Z,0.00
2018-01-12T01:50:06.258Z,0.00
2018-01-12T01:51:06.284Z,0.00
2018-01-12T01:52:06.309Z,0.00
2018-01-12T01:53:06.335Z,0.00
2018-01-12T01:54:06.360Z,0.00
2018-01-12T01:55:06.387Z,0.00
2018-01-12T01:56:06.415Z,0.00
2018-01-12T01:57:06.440Z,0.00
2018-01-12T01:58:06.467Z,0.00
2018-01-12T01:59:06.492Z,0.00
2018-01-12T02:00:06.522Z,0.00
2018-01-12T02:01:06.546Z,0.00
2018-01-12T02:02:06.576Z,0.00
2018-01-12T02:03:06.599Z,0.00
2018-01-12T02:04:06.626Z,0.00
2018-01-12T02:05:06.652Z,0.00
2018-01-12T02:06:06.678Z,0.00
2018-01-12T02:07:06.705Z,0.00
2018-01-12T02:08:06.733Z,0.00
2018-01-12T02:09:06.760Z,0.00
2018-01-12T02:10:06.785Z,0.00
2018-01-12T02:11:06.810Z,0.00
2018-01-12T02:12:06.837Z,0.00
2018-01-12T02:13:06.864Z,0.00
2018-01-12T02:14:06.891Z,0.00
2018-01-12T02:15:06.916Z,0.00
2018-01-12T02:16:06.943Z,0.00
2018-01-12T02:17:06.969Z,0.00
2018-01-12T02:18:06.996Z,0.00
2018-01-12T02:19:07.025Z,0.00
2018-01-12T02:20:07.048Z,0.00
2018-01-12T02:21:07.080Z,0.00
2018-01-12T02:22:07.102Z,0.00
2018-01-12T02:23:07.128Z,0.00
2018-01-12T02:24:07.154Z,0.00
2018-01-12T02:25:07.182Z,0.00
2018-01-12T02:26:07.208Z,0.00
2018-01-12T02:27:07.234Z,0.00
2018-01-12T02:28:07.264Z,0.00
2018-01-12T02:29:07.287Z,0.00
2018-01-12T02:30:07.316Z,0.00
2018-01-12T02:31:07.338Z,0.00
2018-01-12T02:32:07.366Z,0.00
2018-01-12T02:33:07.393Z,0.00
2018-01-12T02:34:07.420Z,0.00
2018-01-12T02:35:07.443Z,0.00
2018-01-12T02:36:07.472Z,0.00
2018-01-12T02:37:07.498Z,0.00
2018-01-12T02:38:07.524Z,0.00
2018-01-12T02:39:07.550Z,0.00
2018-01-12T02:40:07.577Z,0.00
2018-01-12T02:41:07.604Z,0.00
2018-01-12T02:42:07.631Z,0.00
2018-01-12T02:43:07.654Z,0.00
2018-01-12T02:44:07.682Z,0.00
2018-01-12T02:45:07.709Z,0.00
2018-01-12T02:46:07.889Z,0.00
2018-01-12T02:47:07.760Z,0.00
2018-01-12T02:48:07.789Z,0.00
2018-01-12T02:49:07.814Z,0.00
2018-01-12T02:50:07.838Z,0.00
2018-01-12T02:51:07.863Z,0.00
2018-01-12T02:52:07.894Z,0.00
2018-01-12T02:53:07.918Z,0.00
2018-01-12T02:54:07.950Z,0.00
2018-01-12T02:55:07.969Z,0.00
2018-01-12T02:56:07.996Z,0.00
2018-01-12T02:57:08.022Z,0.00
2018-01-12T02:58:08.052Z,0.00
2018-01-12T02:59:08.074Z,0.00
2018-01-12T03:00:08.102Z,0.00
2018-01-12T03:01:08.127Z,0.00
2018-01-12T03:02:08.153Z,0.00
2018-01-12T03:03:08.180Z,0.00
2018-01-12T03:04:08.205Z,0.00
2018-01-12T03:05:08.231Z,0.00
2018-01-12T03:06:08.257Z,0.00
2018-01-12T03:07:08.283Z,0.00
2018-01-12T03:08:08.308Z,0.00
2018-01-12T03:09:08.335Z,0.00
2018-01-12T03:10:08.360Z,0.00
2018-01-12T03:11:08.385Z,0.00
2018-01-12T03:12:08.413Z,0.00
2018-01-12T03:13:08.439Z,0.00
2018-01-12T03:14:08.464Z,0.00
2018-01-12T03:15:08.490Z,0.00
2018-01-12T03:16:08.522Z,0.00
2018-01-12T03:17:08.542Z,0.00
2018-01-12T03:18:08.569Z,0.00
2018-01-12T03:19:08.595Z,0.00
2018-01-12T03:20:08.619Z,0.00
2018-01-12T03:21:08.647Z,0.00
2018-01-12T03:22:08.673Z,0.00
2018-01-12T03:23:08.698Z,0.00
2018-01-12T03:24:08.723Z,0.00
2018-01-12T03:25:08.750Z,0.00
2018-01-12T03:26:08.776Z,0.00
2018-01-12T03:27:08.800Z,0.00
2018-01-12T03:28:08.827Z,0.00
2018-01-12T03:29:08.853Z,0.00
2018-01-12T03:30:08.881Z,0.00
2018-01-12T03:31:08.905Z,0.00
2018-01-12T03:32:08.933Z,0.00
2018-01-12T03:33:08.957Z,0.00
2018-01-12T03:34:08.983Z,0.00
2018-01-12T03:35:09.008Z,0.00
2018-01-12T03:36:09.034Z,0.00
2018-01-12T03:37:09.060Z,0.00
2018-01-12T03:38:09.086Z,0.00
2018-01-12T03:39:09.110Z,0.00
2018-01-12T03:40:09.139Z,0.00
2018-01-12T03:41:09.163Z,0.00
2018-01-12T03:42:09.189Z,0.00
2018-01-12T03:43:09.213Z,0.00
2018-01-12T03:44:09.240Z,0.00
2018-01-12T03:45:09.266Z,0.00
2018-01-12T03:46:09.293Z,0.00
2018-01-12T03:47:09.317Z,0.00
2018-01-12T03:48:09.343Z,0.00
2018-01-12T03:49:09.368Z,0.00
2018-01-12T03:50:09.394Z,0.00
2018-01-12T03:51:09.420Z,0.00
2018-01-12T03:52:09.445Z,0.00
2018-01-12T03:53:09.471Z,0.00
2018-01-12T03:54:09.498Z,0.00
2018-01-12T03:55:09.524Z,0.00
2018-01-12T03:56:09.549Z,0.00
2018-01-12T03:57:09.576Z,0.00
2018-01-12T03:58:09.601Z,0.00
2018-01-12T03:59:09.627Z,0.00
2018-01-12T04:00:09.653Z,0.00
2018-01-12T04:01:09.680Z,0.00
2018-01-12T04:02:09.856Z,0.00
2018-01-12T04:03:09.731Z,0.00
2018-01-12T04:04:09.756Z,0.00
2018-01-12T04:05:09.782Z,0.00
2018-01-12T04:06:09.809Z,0.00
2018-01-12T04:07:09.834Z,0.00
2018-01-12T04:08:09.861Z,0.00
2018-01-12T04:09:09.887Z,0.00
2018-01-12T04:10:09.913Z,0.00
2018-01-12T04:11:09.938Z,0.00
2018-01-12T04:12:09.964Z,0.00
2018-01-12T04:13:09.992Z,0.00
2018-01-12T04:14:10.017Z,0.00
2018-01-12T04:15:10.043Z,0.00
2018-01-12T04:16:10.069Z,0.00
2018-01-12T04:17:10.095Z,0.00
2018-01-12T04:18:10.122Z,0.00
2018-01-12T04:19:10.188Z,0.00
2018-01-12T04:20:10.173Z,0.00
2018-01-12T04:21:10.209Z,0.00
2018-01-12T04:22:10.226Z,0.00
2018-01-12T04:23:10.250Z,0.00
2018-01-12T04:24:10.277Z,0.00
2018-01-12T04:25:10.303Z,0.00
2018-01-12T04:26:10.329Z,0.00
2018-01-12T04:27:10.357Z,0.00
2018-01-12T04:28:10.387Z,0.00
2018-01-12T04:29:10.408Z,0.00
2018-01-12T04:30:10.434Z,0.00
2018-01-12T04:31:10.460Z,0.00
2018-01-12T04:32:10.487Z,0.00
2018-01-12T04:33:10.512Z,0.00
2018-01-12T04:34:10.545Z,0.00
2018-01-12T04:35:10.566Z,0.00
2018-01-12T04:36:10.590Z,0.00
2018-01-12T04:37:10.615Z,0.00
2018-01-12T04:38:10.644Z,0.00
2018-01-12T04:39:10.668Z,0.00
2018-01-12T04:40:10.695Z,0.00
2018-01-12T04:41:10.720Z,0.00
2018-01-12T04:42:10.748Z,0.00
2018-01-12T04:43:10.773Z,0.00
2018-01-12T04:44:10.800Z,0.00
2018-01-12T04:45:10.829Z,0.00
2018-01-12T04:46:10.853Z,0.00
2018-01-12T04:47:10.878Z,0.00
2018-01-12T04:48:10.905Z,0.00
2018-01-12T04:49:10.931Z,0.00
2018-01-12T04:50:10.958Z,0.00
2018-01-12T04:51:10.981Z,0.00
2018-01-12T04:52:11.009Z,0.00
2018-01-12T04:53:11.036Z,0.00
2018-01-12T04:54:11.062Z,0.00
2018-01-12T04:55:11.089Z,0.00
2018-01-12T04:56:11.114Z,0.00
2018-01-12T04:57:11.141Z,0.00
2018-01-12T04:58:11.318Z,0.00
2018-01-12T04:59:11.193Z,0.00
2018-01-12T05:00:11.223Z,0.00
2018-01-12T05:01:11.247Z,0.00
2018-01-12T05:02:11.273Z,0.00
2018-01-12T05:03:11.298Z,0.00
2018-01-12T05:04:11.325Z,0.00
2018-01-12T05:05:11.352Z,0.00
2018-01-12T05:06:11.378Z,0.00
2018-01-12T05:07:11.404Z,0.00
2018-01-12T05:08:11.580Z,0.00
2018-01-12T05:09:11.457Z,0.00
2018-01-12T05:10:11.483Z,0.00
2018-01-12T05:11:11.508Z,0.00
2018-01-12T05:12:11.534Z,0.00
2018-01-12T05:13:11.560Z,0.00
2018-01-12T05:14:11.587Z,0.00
2018-01-12T05:15:11.614Z,0.00
2018-01-12T05:16:11.638Z,0.00
2018-01-12T05:17:11.664Z,0.00
2018-01-12T05:18:11.691Z,0.00
2018-01-12T05:19:11.717Z,0.00
2018-01-12T05:20:11.744Z,0.00
2018-01-12T05:21:11.771Z,0.00
2018-01-12T05:22:11.797Z,0.00
2018-01-12T05:23:11.821Z,0.00
2018-01-12T05:24:11.847Z,0.00
2018-01-12T05:25:11.873Z,0.00
2018-01-12T05:26:11.900Z,0.00
2018-01-12T05:27:11.925Z,0.00
2018-01-12T05:28:11.952Z,0.00
2018-01-12T05:29:11.979Z,0.00
2018-01-12T05:30:12.006Z,0.00
2018-01-12T05:31:12.030Z,0.00
2018-01-12T05:32:12.058Z,0.00
2018-01-12T05:33:12.083Z,0.00
2018-01-12T05:34:12.109Z,0.00
2018-01-12T05:35:12.134Z,0.00
2018-01-12T05:36:12.160Z,0.00
2018-01-12T05:37:12.187Z,0.00
2018-01-12T05:38:12.213Z,0.00
2018-01-12T05:39:12.239Z,0.00
2018-01-12T05:40:12.264Z,0.00
2018-01-12T05:41:12.290Z,0.00
2018-01-12T05:42:12.319Z,0.00
2018-01-12T05:43:12.342Z,0.00
2018-01-12T05:44:12.519Z,0.00
2018-01-12T05:45:12.395Z,0.00
2018-01-12T05:46:12.421Z,0.00
2018-01-12T05:47:12.446Z,0.00
2018-01-12T05:48:12.473Z,0.00
2018-01-12T05:49:12.498Z,0.00
2018-01-12T05:50:12.525Z,0.00
2018-01-12T05:51:12.550Z,0.00
2018-01-12T05:52:12.577Z,0.00
2018-01-12T05:53:12.603Z,0.00
2018-01-12T05:54:12.630Z,0.00
2018-01-12T05:55:12.653Z,0.00
2018-01-12T05:56:12.681Z,0.00
2018-01-12T05:57:12.708Z,0.00
2018-01-12T05:58:12.735Z,0.00
2018-01-12T05:59:12.759Z,0.00
2018-01-12T06:00:12.786Z,0.00
2018-01-12T06:01:12.811Z,0.00
2018-01-12T06:02:12.838Z,0.00
2018-01-12T06:03:12.864Z,0.00
2018-01-12T06:04:12.888Z,0.00
2018-01-12T06:05:12.916Z,0.00
2018-01-12T06:06:12.942Z,0.00
2018-01-12T06:07:12.966Z,0.00
2018-01-12T06:08:12.998Z,0.00
2018-01-12T06:09:13.021Z,0.00
2018-01-12T06:10:13.045Z,0.00
2018-01-12T06:11:13.076Z,0.00
2018-01-12T06:12:13.099Z,0.00
2018-01-12T06:13:13.125Z,0.00
2018-01-12T06:14:13.151Z,0.00
2018-01-12T06:15:13.177Z,0.00
2018-01-12T06:16:13.203Z,0.00
2018-01-12T06:17:13.229Z,0.00
2018-01-12T06:18:13.258Z,0.00
2018-01-12T06:19:13.281Z,0.00
2018-01-12T06:20:13.307Z,0.00
2018-01-12T06:21:13.334Z,0.00
2018-01-12T06:22:13.358Z,0.00
2018-01-12T06:23:13.384Z,0.00
2018-01-12T06:24:13.411Z,0.00
2018-01-12T06:25:13.437Z,0.00
2018-01-12T06:26:13.464Z,0.00
2018-01-12T06:27:13.518Z,0.00
2018-01-12T06:28:13.514Z,0.00
2018-01-12T06:29:13.543Z,0.00
2018-01-12T06:30:13.567Z,0.00
2018-01-12T06:31:13.592Z,0.00
2018-01-12T06:32:13.618Z,0.00
2018-01-12T06:33:13.644Z,0.00
2018-01-12T06:34:13.684Z,0.00
2018-01-12T06:35:13.845Z,0.00
2018-01-12T06:36:13.722Z,0.00
2018-01-12T06:37:13.748Z,0.00
2018-01-12T06:38:13.774Z,0.00
2018-01-12T06:39:13.799Z,0.00
2018-01-12T06:40:13.825Z,0.00
2018-01-12T06:41:13.851Z,0.00
2018-01-12T06:42:13.877Z,0.00
2018-01-12T06:43:13.903Z,0.00
2018-01-12T06:44:13.929Z,0.00
2018-01-12T06:45:13.954Z,0.00
2018-01-12T06:46:13.982Z,0.00
2018-01-12T06:47:14.009Z,0.00
2018-01-12T06:48:14.031Z,0.00
2018-01-12T06:49:14.058Z,0.00
2018-01-12T06:50:14.084Z,0.00
2018-01-12T06:51:14.110Z,0.00
2018-01-12T06:52:14.137Z,0.00
2018-01-12T06:53:14.161Z,0.00
2018-01-12T06:54:14.186Z,0.00
2018-01-12T06:55:14.213Z,0.00
2018-01-12T06:56:14.237Z,0.00
2018-01-12T06:57:14.265Z,0.00
2018-01-12T06:58:14.291Z,0.00
2018-01-12T06:59:14.316Z,0.00
2018-01-12T07:00:14.342Z,0.00
2018-01-12T07:01:14.370Z,0.00
2018-01-12T07:02:14.392Z,0.00
2018-01-12T07:03:14.418Z,0.00
2018-01-12T07:04:14.444Z,0.00
2018-01-12T07:05:14.469Z,0.00
2018-01-12T07:06:14.497Z,0.00
2018-01-12T07:07:14.521Z,0.00
2018-01-12T07:08:14.548Z,0.00
2018-01-12T07:09:14.586Z,0.00
2018-01-12T07:10:14.600Z,0.00
2018-01-12T07:11:14.623Z,0.00
2018-01-12T07:12:14.650Z,0.00
2018-01-12T07:13:14.675Z,0.00
2018-01-12T07:14:14.702Z,5.63
2018-01-12T07:15:14.726Z,5.63
2018-01-12T07:16:14.752Z,5.63
2018-01-12T07:17:14.801Z,5.63
2018-01-12T07:18:14.805Z,5.63
2018-01-12T07:19:14.829Z,5.63
2018-01-12T07:20:14.855Z,5.63
2018-01-12T07:21:14.882Z,5.63
2018-01-12T07:22:14.912Z,5.63
2018-01-12T07:23:14.932Z,5.63
2018-01-12T07:24:14.958Z,11.25
2018-01-12T07:25:14.983Z,11.25
2018-01-12T07:26:15.014Z,11.25
2018-01-12T07:27:15.033Z,11.25
2018-01-12T07:28:15.061Z,11.25
2018-01-12T07:29:15.086Z,11.25
2018-01-12T07:30:15.115Z,11.25
2018-01-12T07:31:15.136Z,16.88
2018-01-12T07:32:15.162Z,16.88
2018-01-12T07:33:15.187Z,16.88
2018-01-12T07:34:15.215Z,16.88
2018-01-12T07:35:15.240Z,22.50
2018-01-12T07:36:15.267Z,22.50
2018-01-12T07:37:15.312Z,22.50
2018-01-12T07:38:15.333Z,22.50
2018-01-12T07:39:15.341Z,28.13
2018-01-12T07:40:15.366Z,28.13
2018-01-12T07:41:15.392Z,28.13
2018-01-12T07:42:15.418Z,28.13
2018-01-12T07:43:15.443Z,33.75
2018-01-12T07:44:15.469Z,39.38
2018-01-12T07:45:15.496Z,39.38
2018-01-12T07:46:15.521Z,45.00
2018-01-12T07:47:15.545Z,45.00
2018-01-12T07:48:15.570Z,45.00
2018-01-12T07:49:15.601Z,45.00
2018-01-12T07:50:15.622Z,45.00
2018-01-12T07:51:15.647Z,50.63
2018-01-12T07:52:15.673Z,56.25
2018-01-12T07:53:15.698Z,56.25
2018-01-12T07:54:15.724Z,56.25
2018-01-12T07:55:15.748Z,56.25
2018-01-12T07:56:15.774Z,56.25
2018-01-12T07:57:15.799Z,61.88
2018-01-12T07:58:15.823Z,61.88
2018-01-12T07:59:15.850Z,61.88
2018-01-12T08:00:15.874Z,67.50
2018-01-12T08:01:15.902Z,67.50
2018-01-12T08:02:15.926Z,73.13
2018-01-12T08:03:15.952Z,73.13
2018-01-12T08:04:15.978Z,78.75
2018-01-12T08:05:16.000Z,78.75
2018-01-12T08:06:16.026Z,78.75
2018-01-12T08:07:16.052Z,78.75
2018-01-12T08:08:16.077Z,78.75
2018-01-12T08:09:16.103Z,78.75
2018-01-12T08:10:16.128Z,84.38
2018-01-12T08:11:16.152Z,84.38
2018-01-12T08:12:16.178Z,84.38
2018-01-12T08:13:16.204Z,84.38
2018-01-12T08:14:16.230Z,95.63
2018-01-12T08:15:16.254Z,101.25
2018-01-12T08:16:16.279Z,106.88
2018-01-12T08:17:16.309Z,118.13
2018-01-12T08:18:16.331Z,140.63
2018-01-12T08:19:16.355Z,146.25
2018-01-12T08:20:16.380Z,118.13
2018-01-12T08:21:16.411Z,123.75
2018-01-12T08:22:16.432Z,129.38
2018-01-12T08:23:16.459Z,157.50
2018-01-12T08:24:16.483Z,191.25
2018-01-12T08:25:16.509Z,168.75
2018-01-12T08:26:16.534Z,163.13
2018-01-12T08:27:16.562Z,157.50
2018-01-12T08:28:16.585Z,174.38
2018-01-12T08:29:16.611Z,180.00
2018-01-12T08:30:16.641Z,185.63
2018-01-12T08:31:16.664Z,185.63
2018-01-12T08:32:16.689Z,208.13
2018-01-12T08:33:16.716Z,225.00
2018-01-12T08:34:16.742Z,219.38
2018-01-12T08:35:16.767Z,213.75
2018-01-12T08:36:16.795Z,208.13
2018-01-12T08:37:16.822Z,230.63
2018-01-12T08:38:16.852Z,258.75
2018-01-12T08:39:16.873Z,292.50
2018-01-12T08:40:16.901Z,286.88
2018-01-12T08:41:16.926Z,303.75
2018-01-12T08:42:16.955Z,315.00
2018-01-12T08:43:17.025Z,315.00
2018-01-12T08:44:17.009Z,354.38
2018-01-12T08:45:17.038Z,433.13
2018-01-12T08:46:17.071Z,416.25
2018-01-12T08:47:17.091Z,410.63
2018-01-12T08:48:17.119Z,399.38
2018-01-12T08:49:17.146Z,528.75
2018-01-12T08:50:17.174Z,517.50
2018-01-12T08:51:17.201Z,506.25
2018-01-12T08:52:17.229Z,528.75
2018-01-12T08:53:17.259Z,545.63
2018-01-12T08:54:17.287Z,506.25
2018-01-12T08:55:17.315Z,450.00
2018-01-12T08:56:17.344Z,500.63
2018-01-12T08:57:17.375Z,500.63
2018-01-12T08:58:17.406Z,511.88
2018-01-12T08:59:17.432Z,343.13
2018-01-12T09:00:17.461Z,230.63
2018-01-12T09:01:17.491Z,478.13
2018-01-12T09:02:17.522Z,427.50
2018-01-12T09:03:17.550Z,360.00
2018-01-12T09:04:17.579Z,281.25
2018-01-12T09:05:17.611Z,225.00
2018-01-12T09:06:17.640Z,545.63
2018-01-12T09:07:17.669Z,495.00
2018-01-12T09:08:17.699Z,472.50
2018-01-12T09:09:17.729Z,230.63
2018-01-12T09:10:17.761Z,236.25
2018-01-12T09:11:17.790Z,241.88
2018-01-12T09:12:17.820Z,658.13
2018-01-12T09:13:17.850Z,663.75
2018-01-12T09:14:17.881Z,691.88
2018-01-12T09:15:17.910Z,748.13
2018-01-12T09:16:17.939Z,787.50
2018-01-12T09:17:17.971Z,703.13
2018-01-12T09:18:18.001Z,776.25
2018-01-12T09:19:18.032Z,787.50
2018-01-12T09:20:18.065Z,506.25
2018-01-12T09:21:18.093Z,770.63
2018-01-12T09:22:18.125Z,798.75
2018-01-12T09:23:18.155Z,826.88
2018-01-12T09:24:18.186Z,849.38
2018-01-12T09:25:18.218Z,866.25
2018-01-12T09:26:18.251Z,860.63
2018-01-12T09:27:18.281Z,883.13
2018-01-12T09:28:18.463Z,922.50
2018-01-12T09:29:18.346Z,939.38
2018-01-12T09:30:18.378Z,945.00
2018-01-12T09:31:18.409Z,978.75
2018-01-12T09:32:18.443Z,990.00
2018-01-12T09:33:18.476Z,990.00
2018-01-12T09:34:18.512Z,1012.50
2018-01-12T09:35:18.542Z,1023.75
2018-01-12T09:36:18.575Z,1035.00
2018-01-12T09:37:18.608Z,1040.63
2018-01-12T09:38:18.644Z,1068.75
2018-01-12T09:39:18.680Z,1068.75
2018-01-12T09:40:18.711Z,1091.25
2018-01-12T09:41:18.745Z,1102.50
2018-01-12T09:42:18.781Z,1102.50
2018-01-12T09:43:18.815Z,1130.63
2018-01-12T09:44:18.851Z,1158.75
2018-01-12T09:45:18.885Z,1164.38
2018-01-12T09:46:18.920Z,1175.63
2018-01-12T09:47:18.958Z,1203.75
2018-01-12T09:48:18.992Z,1231.88
2018-01-12T09:49:19.028Z,1237.50
2018-01-12T09:50:19.066Z,1237.50
2018-01-12T09:51:19.101Z,1254.38
2018-01-12T09:52:19.138Z,1254.38
2018-01-12T09:53:19.174Z,1276.88
2018-01-12T09:54:19.213Z,1271.25
2018-01-12T09:55:19.248Z,1293.75
2018-01-12T09:56:19.287Z,1316.25
2018-01-12T09:57:19.325Z,1327.50
2018-01-12T09:58:19.362Z,1316.25
2018-01-12T09:59:19.400Z,1310.63
2018-01-12T10:00:19.441Z,1327.50
2018-01-12T10:01:19.477Z,1361.25
2018-01-12T10:02:19.515Z,1389.38
2018-01-12T10:03:19.575Z,1372.50
2018-01-12T10:04:19.593Z,1361.25
2018-01-12T10:05:19.637Z,1378.13
2018-01-12T10:06:19.671Z,1378.13
2018-01-12T10:07:19.712Z,1372.50
2018-01-12T10:08:19.749Z,1395.00
2018-01-12T10:09:19.789Z,1411.88
2018-01-12T10:10:19.828Z,1400.63
2018-01-12T10:11:19.866Z,1400.63
2018-01-12T10:12:19.907Z,1417.50
2018-01-12T10:13:19.947Z,1423.13
2018-01-12T10:14:19.988Z,1423.13
2018-01-12T10:15:20.028Z,1400.63
2018-01-12T10:16:20.068Z,1406.25
2018-01-12T10:17:20.109Z,1434.38
2018-01-12T10:18:20.149Z,1423.13
2018-01-12T10:19:20.190Z,1276.88
2018-01-12T10:20:20.231Z,1063.13
2018-01-12T10:21:20.272Z,1006.88
2018-01-12T10:22:20.313Z,984.38
2018-01-12T10:23:20.354Z,973.13
2018-01-12T10:24:20.396Z,973.13
2018-01-12T10:25:20.437Z,984.38
2018-01-12T10:26:20.479Z,978.75
2018-01-12T10:27:20.520Z,1006.88
2018-01-12T10:28:20.562Z,1074.38
2018-01-12T10:29:20.755Z,1338.75
2018-01-12T10:30:20.648Z,1490.63
2018-01-12T10:31:20.688Z,1541.25
2018-01-12T10:32:20.731Z,1558.13
2018-01-12T10:33:20.773Z,1552.50
2018-01-12T10:34:20.815Z,1546.88
2018-01-12T10:36:20.900Z,1575.00
2018-01-12T10:37:20.941Z,1586.25
2018-01-12T10:38:20.985Z,1591.88
2018-01-12T10:39:21.027Z,1586.25
2018-01-12T10:40:21.071Z,1569.38
2018-01-12T10:41:21.115Z,1597.50
2018-01-12T10:42:21.156Z,1591.88
2018-01-12T10:43:21.198Z,1614.38
2018-01-12T10:44:21.240Z,1631.25
2018-01-12T10:45:21.284Z,1608.75
2018-01-12T10:46:21.328Z,1620.00
2018-01-12T10:47:21.369Z,1642.50
2018-01-12T10:48:21.413Z,1608.75
2018-01-12T10:49:21.456Z,1558.13
2018-01-12T10:50:21.499Z,1524.38
2018-01-12T10:51:21.541Z,1496.25
2018-01-12T10:52:21.584Z,1513.13
2018-01-12T10:53:21.627Z,1535.63
2018-01-12T10:54:21.673Z,1546.88
2018-01-12T10:55:21.713Z,1563.75
2018-01-12T10:56:21.755Z,1586.25
2018-01-12T10:57:21.798Z,1603.13
2018-01-12T10:58:21.842Z,1614.38
2018-01-12T10:59:21.884Z,1591.88
2018-01-12T11:00:21.927Z,1603.13
2018-01-12T11:01:21.969Z,1569.38
2018-01-12T11:02:22.014Z,1541.25
2018-01-12T11:03:22.056Z,1546.88
2018-01-12T11:04:22.100Z,1456.88
2018-01-12T11:05:22.142Z,1417.50
2018-01-12T11:06:22.186Z,1569.38
2018-01-12T11:07:22.229Z,1580.63
2018-01-12T11:08:22.275Z,1395.00
2018-01-12T11:09:22.315Z,1316.25
2018-01-12T11:10:22.359Z,1248.75
2018-01-12T11:11:22.404Z,495.00
2018-01-12T11:12:22.444Z,759.38
2018-01-12T11:13:22.493Z,708.75
2018-01-12T11:14:22.530Z,787.50
2018-01-12T11:15:22.570Z,1479.38
2018-01-12T11:16:22.618Z,686.25
2018-01-12T11:17:22.655Z,1552.50
2018-01-12T11:18:22.696Z,438.75
2018-01-12T11:19:22.737Z,556.88
2018-01-12T11:20:22.777Z,523.13
2018-01-12T11:21:22.818Z,832.50
2018-01-12T11:22:22.860Z,832.50
2018-01-12T11:23:22.900Z,551.25
2018-01-12T11:24:22.940Z,922.50
2018-01-12T11:25:22.980Z,630.00
2018-01-12T11:26:23.020Z,928.13
2018-01-12T11:27:23.059Z,950.63
2018-01-12T11:28:23.099Z,928.13
2018-01-12T11:29:23.138Z,1023.75
2018-01-12T11:30:23.328Z,1046.25
2018-01-12T11:31:23.215Z,1586.25
2018-01-12T11:32:23.254Z,1625.63
2018-01-12T11:33:23.292Z,1653.75
2018-01-12T11:34:23.333Z,1591.88
2018-01-12T11:35:23.370Z,1631.25
2018-01-12T11:36:23.410Z,1563.75
2018-01-12T11:37:23.449Z,1451.25
2018-01-12T11:38:23.489Z,1372.50
2018-01-12T11:39:23.529Z,1518.75
2018-01-12T11:40:23.719Z,1541.25
2018-01-12T11:41:23.608Z,838.13
2018-01-12T11:42:23.650Z,832.50
2018-01-12T11:43:23.689Z,1513.13
2018-01-12T11:44:23.733Z,1085.63
2018-01-12T11:45:23.771Z,1563.75
2018-01-12T11:46:23.812Z,1563.75
2018-01-12T11:47:23.850Z,1507.50
2018-01-12T11:48:23.892Z,1535.63
2018-01-12T11:49:23.932Z,1636.88
2018-01-12T11:50:23.973Z,1642.50
2018-01-12T11:51:24.014Z,1603.13
2018-01-12T11:52:24.054Z,1597.50
2018-01-12T11:53:24.096Z,1676.25
2018-01-12T11:54:24.139Z,1648.13
2018-01-12T11:55:24.221Z,534.38
2018-01-12T11:56:24.219Z,866.25
2018-01-12T11:57:24.261Z,579.38
2018-01-12T11:58:24.309Z,697.50
2018-01-12T11:59:24.344Z,894.38
2018-01-12T12:00:24.385Z,1108.13
2018-01-12T12:01:24.427Z,916.88
2018-01-12T12:02:24.468Z,759.38
2018-01-12T12:03:24.509Z,900.00
2018-01-12T12:04:24.548Z,888.75
2018-01-12T12:05:24.591Z,478.13
2018-01-12T12:06:24.632Z,540.00
2018-01-12T12:07:24.671Z,511.88
2018-01-12T12:08:24.712Z,455.63
2018-01-12T12:09:24.752Z,500.63
2018-01-12T12:10:24.797Z,472.50
2018-01-12T12:11:24.833Z,410.63
2018-01-12T12:12:24.871Z,399.38
2018-01-12T12:13:24.910Z,410.63
2018-01-12T12:14:24.949Z,410.63
2018-01-12T12:15:24.989Z,399.38
2018-01-12T12:16:25.026Z,416.25
2018-01-12T12:17:25.065Z,416.25
2018-01-12T12:18:25.104Z,410.63
2018-01-12T12:19:25.140Z,399.38
2018-01-12T12:20:25.177Z,360.00
2018-01-12T12:21:25.216Z,354.38
2018-01-12T12:22:25.252Z,348.75
2018-01-12T12:23:25.289Z,337.50
2018-01-12T12:24:25.340Z,354.38
2018-01-12T12:25:25.385Z,354.38
2018-01-12T12:26:25.419Z,343.13
2018-01-12T12:27:25.433Z,331.88
2018-01-12T12:28:25.468Z,326.25
2018-01-12T12:29:25.505Z,320.63
2018-01-12T12:30:25.540Z,320.63
2018-01-12T12:31:25.576Z,331.88
2018-01-12T12:32:25.610Z,337.50
2018-01-12T12:33:25.645Z,315.00
2018-01-12T12:34:25.680Z,275.63
2018-01-12T12:35:25.714Z,258.75
2018-01-12T12:36:25.748Z,253.13
2018-01-12T12:37:25.783Z,253.13
2018-01-12T12:38:25.817Z,241.88
2018-01-12T12:39:25.850Z,236.25
2018-01-12T12:40:25.884Z,258.75
2018-01-12T12:41:25.917Z,303.75
2018-01-12T12:42:25.951Z,326.25
2018-01-12T12:43:25.984Z,337.50
2018-01-12T12:44:26.062Z,427.50
2018-01-12T12:45:26.055Z,433.13
2018-01-12T12:46:26.084Z,382.50
2018-01-12T12:47:26.116Z,489.38
2018-01-12T12:48:26.149Z,849.38
2018-01-12T12:49:26.183Z,1125.00
2018-01-12T12:50:26.215Z,978.75
2018-01-12T12:51:26.248Z,1080.00
2018-01-12T12:52:26.281Z,1276.88
2018-01-12T12:53:26.314Z,900.00
2018-01-12T12:54:26.349Z,1006.88
2018-01-12T12:55:26.381Z,973.13